sensor_id;sensor_type;location;lat;lon;timestamp;P1;durP1;ratioP1;P2;durP2;ratioP2
18136;SDS011;9194;42.632;23.298;2022-10-15T00:01:50;8.50;;;5.67;;
18136;SDS011;9194;42.632;23.298;2022-10-15T00:06:52;10.63;;;5.70;;
18136;SDS011;9194;42.632;23.298;2022-10-15T00:11:53;8.33;;;5.47;;
18136;SDS011;9194;42.632;23.298;2022-10-15T00:16:54;6.87;;;5.43;;
18136;SDS011;9194;42.632;23.298;2022-10-15T00:21:56;8.17;;;5.30;;
18136;SDS011;9194;42.632;23.298;2022-10-15T00:26:57;7.63;;;5.00;;
18136;SDS011;9194;42.632;23.298;2022-10-15T00:31:58;8.47;;;5.60;;
18136;SDS011;9194;42.632;23.298;2022-10-15T00:37:00;11.20;;;5.47;;
18136;SDS011;9194;42.632;23.298;2022-10-15T00:42:01;10.13;;;5.33;;
18136;SDS011;9194;42.632;23.298;2022-10-15T00:52:33;8.83;;;5.30;;
18136;SDS011;9194;42.632;23.298;2022-10-15T00:57:43;12.20;;;5.33;;
18136;SDS011;9194;42.632;23.298;2022-10-15T01:02:49;8.50;;;5.30;;
18136;SDS011;9194;42.632;23.298;2022-10-15T01:07:50;6.97;;;5.57;;
18136;SDS011;9194;42.632;23.298;2022-10-15T01:12:57;11.73;;;5.73;;
18136;SDS011;9194;42.632;23.298;2022-10-15T01:18:12;10.53;;;5.53;;
18136;SDS011;9194;42.632;23.298;2022-10-15T01:39:55;5.07;;;4.00;;
18136;SDS011;9194;42.632;23.298;2022-10-15T01:45:02;4.07;;;3.50;;
18136;SDS011;9194;42.632;23.298;2022-10-15T01:50:34;4.20;;;3.80;;
18136;SDS011;9194;42.632;23.298;2022-10-15T01:55:42;3.97;;;3.50;;
18136;SDS011;9194;42.632;23.298;2022-10-15T02:00:45;4.83;;;3.90;;
18136;SDS011;9194;42.632;23.298;2022-10-15T02:05:49;3.73;;;3.23;;
18136;SDS011;9194;42.632;23.298;2022-10-15T02:11:04;8.13;;;3.73;;
18136;SDS011;9194;42.632;23.298;2022-10-15T02:16:16;4.10;;;3.57;;
18136;SDS011;9194;42.632;23.298;2022-10-15T02:21:28;4.97;;;3.23;;
18136;SDS011;9194;42.632;23.298;2022-10-15T02:27:06;6.13;;;3.07;;
18136;SDS011;9194;42.632;23.298;2022-10-15T02:32:10;3.97;;;3.43;;
18136;SDS011;9194;42.632;23.298;2022-10-15T02:37:16;4.20;;;3.50;;
18136;SDS011;9194;42.632;23.298;2022-10-15T02:42:21;6.40;;;3.07;;
18136;SDS011;9194;42.632;23.298;2022-10-15T02:47:22;5.07;;;3.87;;
18136;SDS011;9194;42.632;23.298;2022-10-15T02:52:24;6.60;;;3.43;;
18136;SDS011;9194;42.632;23.298;2022-10-15T02:57:25;4.83;;;3.50;;
18136;SDS011;9194;42.632;23.298;2022-10-15T03:02:26;5.83;;;3.40;;
18136;SDS011;9194;42.632;23.298;2022-10-15T03:07:28;5.90;;;4.10;;
18136;SDS011;9194;42.632;23.298;2022-10-15T03:12:30;7.37;;;3.97;;
18136;SDS011;9194;42.632;23.298;2022-10-15T03:17:32;9.77;;;4.70;;
18136;SDS011;9194;42.632;23.298;2022-10-15T03:22:34;5.20;;;4.10;;
18136;SDS011;9194;42.632;23.298;2022-10-15T03:27:36;4.73;;;4.03;;
18136;SDS011;9194;42.632;23.298;2022-10-15T03:32:44;8.20;;;4.63;;
18136;SDS011;9194;42.632;23.298;2022-10-15T03:37:47;8.90;;;4.83;;
18136;SDS011;9194;42.632;23.298;2022-10-15T03:42:52;6.40;;;4.70;;
18136;SDS011;9194;42.632;23.298;2022-10-15T03:47:57;8.93;;;4.67;;
18136;SDS011;9194;42.632;23.298;2022-10-15T03:53:03;10.80;;;4.30;;
18136;SDS011;9194;42.632;23.298;2022-10-15T03:58:05;7.03;;;4.20;;
18136;SDS011;9194;42.632;23.298;2022-10-15T04:03:08;6.47;;;4.80;;
18136;SDS011;9194;42.632;23.298;2022-10-15T04:08:09;7.00;;;4.63;;
18136;SDS011;9194;42.632;23.298;2022-10-15T04:13:14;7.47;;;5.30;;
18136;SDS011;9194;42.632;23.298;2022-10-15T04:18:17;7.27;;;5.00;;
18136;SDS011;9194;42.632;23.298;2022-10-15T04:23:24;10.90;;;6.33;;
18136;SDS011;9194;42.632;23.298;2022-10-15T04:28:44;10.63;;;6.23;;
18136;SDS011;9194;42.632;23.298;2022-10-15T04:33:48;10.43;;;5.63;;
18136;SDS011;9194;42.632;23.298;2022-10-15T04:38:51;11.13;;;5.80;;
18136;SDS011;9194;42.632;23.298;2022-10-15T04:44:09;15.37;;;7.50;;
18136;SDS011;9194;42.632;23.298;2022-10-15T04:49:12;12.37;;;6.10;;
18136;SDS011;9194;42.632;23.298;2022-10-15T04:54:15;13.50;;;6.50;;
18136;SDS011;9194;42.632;23.298;2022-10-15T04:59:35;13.73;;;6.27;;
18136;SDS011;9194;42.632;23.298;2022-10-15T05:05:05;10.90;;;6.53;;
18136;SDS011;9194;42.632;23.298;2022-10-15T05:10:08;8.23;;;5.90;;
18136;SDS011;9194;42.632;23.298;2022-10-15T05:15:09;8.80;;;5.87;;
18136;SDS011;9194;42.632;23.298;2022-10-15T05:20:11;9.97;;;5.90;;
18136;SDS011;9194;42.632;23.298;2022-10-15T05:25:13;10.80;;;6.07;;
18136;SDS011;9194;42.632;23.298;2022-10-15T05:30:16;8.07;;;5.10;;
18136;SDS011;9194;42.632;23.298;2022-10-15T05:35:24;7.50;;;5.03;;
18136;SDS011;9194;42.632;23.298;2022-10-15T05:40:33;12.37;;;6.50;;
18136;SDS011;9194;42.632;23.298;2022-10-15T05:45:40;13.10;;;5.90;;
18136;SDS011;9194;42.632;23.298;2022-10-15T05:50:42;13.13;;;5.93;;
18136;SDS011;9194;42.632;23.298;2022-10-15T05:55:48;11.27;;;5.80;;
18136;SDS011;9194;42.632;23.298;2022-10-15T06:00:53;11.27;;;5.80;;
18136;SDS011;9194;42.632;23.298;2022-10-15T06:05:58;9.83;;;5.73;;
18136;SDS011;9194;42.632;23.298;2022-10-15T06:11:03;12.93;;;5.17;;
18136;SDS011;9194;42.632;23.298;2022-10-15T06:16:04;9.37;;;4.70;;
18136;SDS011;9194;42.632;23.298;2022-10-15T06:21:06;8.63;;;5.17;;
18136;SDS011;9194;42.632;23.298;2022-10-15T06:26:12;16.77;;;5.70;;
18136;SDS011;9194;42.632;23.298;2022-10-15T06:31:15;10.52;;;5.72;;
18136;SDS011;9194;42.632;23.298;2022-10-15T06:36:17;12.07;;;5.67;;
18136;SDS011;9194;42.632;23.298;2022-10-15T06:41:18;12.70;;;5.17;;
18136;SDS011;9194;42.632;23.298;2022-10-15T06:46:19;7.20;;;5.10;;
18136;SDS011;9194;42.632;23.298;2022-10-15T06:51:20;11.57;;;5.07;;
18136;SDS011;9194;42.632;23.298;2022-10-15T06:56:24;10.97;;;6.00;;
18136;SDS011;9194;42.632;23.298;2022-10-15T07:01:25;12.93;;;5.17;;
18136;SDS011;9194;42.632;23.298;2022-10-15T07:06:26;10.57;;;5.40;;
18136;SDS011;9194;42.632;23.298;2022-10-15T07:30:15;12.13;;;5.40;;
18136;SDS011;9194;42.632;23.298;2022-10-15T07:35:17;10.40;;;4.72;;
18136;SDS011;9194;42.632;23.298;2022-10-15T07:40:19;8.80;;;5.63;;
18136;SDS011;9194;42.632;23.298;2022-10-15T07:45:20;12.50;;;5.63;;
18136;SDS011;9194;42.632;23.298;2022-10-15T07:50:22;6.80;;;4.57;;
18136;SDS011;9194;42.632;23.298;2022-10-15T07:55:23;6.05;;;4.32;;
18136;SDS011;9194;42.632;23.298;2022-10-15T08:00:25;8.82;;;4.97;;
18136;SDS011;9194;42.632;23.298;2022-10-15T08:05:26;9.77;;;5.32;;
18136;SDS011;9194;42.632;23.298;2022-10-15T08:10:27;8.35;;;4.68;;
18136;SDS011;9194;42.632;23.298;2022-10-15T08:15:29;9.93;;;4.20;;
18136;SDS011;9194;42.632;23.298;2022-10-15T08:20:30;9.00;;;4.80;;
18136;SDS011;9194;42.632;23.298;2022-10-15T08:25:31;14.50;;;5.25;;
18136;SDS011;9194;42.632;23.298;2022-10-15T08:36:00;15.90;;;5.93;;
18136;SDS011;9194;42.632;23.298;2022-10-15T08:41:01;10.68;;;4.20;;
18136;SDS011;9194;42.632;23.298;2022-10-15T08:46:10;14.55;;;4.53;;
18136;SDS011;9194;42.632;23.298;2022-10-15T08:51:17;8.38;;;4.38;;
18136;SDS011;9194;42.632;23.298;2022-10-15T08:56:21;7.35;;;4.80;;
18136;SDS011;9194;42.632;23.298;2022-10-15T09:06:46;8.40;;;5.03;;
18136;SDS011;9194;42.632;23.298;2022-10-15T09:12:15;15.48;;;4.55;;
18136;SDS011;9194;42.632;23.298;2022-10-15T09:17:32;9.15;;;4.28;;
18136;SDS011;9194;42.632;23.298;2022-10-15T09:22:36;5.70;;;4.35;;
18136;SDS011;9194;42.632;23.298;2022-10-15T09:27:37;10.80;;;4.80;;
18136;SDS011;9194;42.632;23.298;2022-10-15T09:32:44;10.30;;;4.05;;
18136;SDS011;9194;42.632;23.298;2022-10-15T09:43:06;7.50;;;3.88;;
18136;SDS011;9194;42.632;23.298;2022-10-15T09:48:14;6.22;;;4.28;;
18136;SDS011;9194;42.632;23.298;2022-10-15T09:58:53;5.22;;;3.85;;
18136;SDS011;9194;42.632;23.298;2022-10-15T10:04:12;5.88;;;3.60;;
18136;SDS011;9194;42.632;23.298;2022-10-15T10:09:36;9.05;;;3.85;;
18136;SDS011;9194;42.632;23.298;2022-10-15T10:14:59;6.88;;;3.70;;
18136;SDS011;9194;42.632;23.298;2022-10-15T10:25:22;8.02;;;3.72;;
18136;SDS011;9194;42.632;23.298;2022-10-15T10:30:24;5.53;;;3.58;;
18136;SDS011;9194;42.632;23.298;2022-10-15T10:35:31;9.75;;;4.13;;
18136;SDS011;9194;42.632;23.298;2022-10-15T10:40:36;8.93;;;4.15;;
18136;SDS011;9194;42.632;23.298;2022-10-15T10:45:56;4.05;;;3.55;;
18136;SDS011;9194;42.632;23.298;2022-10-15T10:56:33;5.35;;;3.75;;
18136;SDS011;9194;42.632;23.298;2022-10-15T11:01:36;4.47;;;3.40;;
18136;SDS011;9194;42.632;23.298;2022-10-15T11:18:15;6.95;;;3.65;;
18136;SDS011;9194;42.632;23.298;2022-10-15T11:34:04;4.00;;;3.28;;
18136;SDS011;9194;42.632;23.298;2022-10-15T12:00:34;4.80;;;3.65;;
18136;SDS011;9194;42.632;23.298;2022-10-15T12:05:46;6.10;;;3.30;;
18136;SDS011;9194;42.632;23.298;2022-10-15T12:22:03;5.97;;;3.45;;
18136;SDS011;9194;42.632;23.298;2022-10-15T12:32:23;7.85;;;3.20;;
18136;SDS011;9194;42.632;23.298;2022-10-15T12:37:27;5.97;;;3.10;;
18136;SDS011;9194;42.632;23.298;2022-10-15T12:42:34;5.63;;;3.33;;
18136;SDS011;9194;42.632;23.298;2022-10-15T13:03:31;4.40;;;3.42;;
18136;SDS011;9194;42.632;23.298;2022-10-15T13:08:35;5.28;;;3.35;;
18136;SDS011;9194;42.632;23.298;2022-10-15T13:13:36;5.78;;;2.80;;
18136;SDS011;9194;42.632;23.298;2022-10-15T13:18:46;4.97;;;2.85;;
18136;SDS011;9194;42.632;23.298;2022-10-15T13:23:50;5.60;;;2.90;;
18136;SDS011;9194;42.632;23.298;2022-10-15T13:28:52;6.55;;;2.80;;
18136;SDS011;9194;42.632;23.298;2022-10-15T13:44:32;4.43;;;3.50;;
18136;SDS011;9194;42.632;23.298;2022-10-15T13:49:34;10.88;;;3.05;;
18136;SDS011;9194;42.632;23.298;2022-10-15T13:54:36;6.13;;;2.92;;
18136;SDS011;9194;42.632;23.298;2022-10-15T13:59:38;7.68;;;3.50;;
18136;SDS011;9194;42.632;23.298;2022-10-15T14:04:45;6.57;;;3.22;;
18136;SDS011;9194;42.632;23.298;2022-10-15T14:09:46;4.07;;;3.17;;
18136;SDS011;9194;42.632;23.298;2022-10-15T14:14:48;3.53;;;2.97;;
18136;SDS011;9194;42.632;23.298;2022-10-15T14:19:54;7.50;;;3.40;;
18136;SDS011;9194;42.632;23.298;2022-10-15T14:25:03;15.02;;;3.58;;
18136;SDS011;9194;42.632;23.298;2022-10-15T14:30:13;7.15;;;3.08;;
18136;SDS011;9194;42.632;23.298;2022-10-15T14:35:22;5.35;;;3.38;;
18136;SDS011;9194;42.632;23.298;2022-10-15T14:40:37;4.43;;;3.03;;
18136;SDS011;9194;42.632;23.298;2022-10-15T14:45:39;7.13;;;3.05;;
18136;SDS011;9194;42.632;23.298;2022-10-15T14:50:57;3.30;;;3.00;;
18136;SDS011;9194;42.632;23.298;2022-10-15T14:56:01;5.13;;;3.13;;
18136;SDS011;9194;42.632;23.298;2022-10-15T15:01:06;3.30;;;3.00;;
18136;SDS011;9194;42.632;23.298;2022-10-15T15:06:08;5.80;;;3.30;;
18136;SDS011;9194;42.632;23.298;2022-10-15T15:11:18;5.95;;;2.88;;
18136;SDS011;9194;42.632;23.298;2022-10-15T15:16:23;10.48;;;3.58;;
18136;SDS011;9194;42.632;23.298;2022-10-15T15:21:24;7.97;;;3.85;;
18136;SDS011;9194;42.632;23.298;2022-10-15T15:26:26;5.40;;;3.42;;
18136;SDS011;9194;42.632;23.298;2022-10-15T15:31:27;5.45;;;3.03;;
18136;SDS011;9194;42.632;23.298;2022-10-15T15:36:32;4.63;;;3.42;;
18136;SDS011;9194;42.632;23.298;2022-10-15T15:41:33;6.00;;;3.43;;
18136;SDS011;9194;42.632;23.298;2022-10-15T15:46:34;4.70;;;3.40;;
18136;SDS011;9194;42.632;23.298;2022-10-15T15:51:36;6.83;;;3.50;;
18136;SDS011;9194;42.632;23.298;2022-10-15T15:56:37;7.43;;;3.50;;
18136;SDS011;9194;42.632;23.298;2022-10-15T16:01:40;4.10;;;3.33;;
18136;SDS011;9194;42.632;23.298;2022-10-15T16:06:42;4.87;;;3.23;;
18136;SDS011;9194;42.632;23.298;2022-10-15T16:11:44;5.07;;;3.27;;
18136;SDS011;9194;42.632;23.298;2022-10-15T16:16:45;5.70;;;2.97;;
18136;SDS011;9194;42.632;23.298;2022-10-15T16:21:47;4.47;;;2.90;;
18136;SDS011;9194;42.632;23.298;2022-10-15T16:26:49;4.30;;;2.77;;
18136;SDS011;9194;42.632;23.298;2022-10-15T16:31:50;7.50;;;3.37;;
18136;SDS011;9194;42.632;23.298;2022-10-15T16:36:51;4.50;;;3.27;;
18136;SDS011;9194;42.632;23.298;2022-10-15T16:41:53;4.00;;;3.27;;
18136;SDS011;9194;42.632;23.298;2022-10-15T16:46:55;11.57;;;3.67;;
18136;SDS011;9194;42.632;23.298;2022-10-15T16:51:56;9.27;;;5.50;;
18136;SDS011;9194;42.632;23.298;2022-10-15T16:56:58;13.83;;;5.57;;
18136;SDS011;9194;42.632;23.298;2022-10-15T17:01:59;5.47;;;3.77;;
18136;SDS011;9194;42.632;23.298;2022-10-15T17:07:01;6.87;;;4.10;;
18136;SDS011;9194;42.632;23.298;2022-10-15T17:12:02;6.87;;;4.03;;
18136;SDS011;9194;42.632;23.298;2022-10-15T17:17:04;3.17;;;2.77;;
18136;SDS011;9194;42.632;23.298;2022-10-15T17:22:07;8.23;;;3.40;;
18136;SDS011;9194;42.632;23.298;2022-10-15T17:27:09;3.93;;;3.20;;
18136;SDS011;9194;42.632;23.298;2022-10-15T17:32:10;6.97;;;3.20;;
18136;SDS011;9194;42.632;23.298;2022-10-15T17:37:11;6.13;;;4.00;;
18136;SDS011;9194;42.632;23.298;2022-10-15T17:42:13;3.63;;;3.20;;
18136;SDS011;9194;42.632;23.298;2022-10-15T17:47:15;4.23;;;3.20;;
18136;SDS011;9194;42.632;23.298;2022-10-15T17:52:17;6.47;;;3.40;;
18136;SDS011;9194;42.632;23.298;2022-10-15T17:57:18;4.20;;;3.27;;
18136;SDS011;9194;42.632;23.298;2022-10-15T18:02:19;11.53;;;3.70;;
18136;SDS011;9194;42.632;23.298;2022-10-15T18:07:22;6.03;;;3.33;;
18136;SDS011;9194;42.632;23.298;2022-10-15T18:12:23;5.10;;;3.53;;
18136;SDS011;9194;42.632;23.298;2022-10-15T18:17:24;3.60;;;3.30;;
18136;SDS011;9194;42.632;23.298;2022-10-15T18:22:26;5.13;;;3.27;;
18136;SDS011;9194;42.632;23.298;2022-10-15T18:27:27;9.90;;;3.47;;
18136;SDS011;9194;42.632;23.298;2022-10-15T18:32:28;4.30;;;3.40;;
18136;SDS011;9194;42.632;23.298;2022-10-15T18:37:29;7.70;;;4.70;;
18136;SDS011;9194;42.632;23.298;2022-10-15T18:42:31;7.30;;;3.63;;
18136;SDS011;9194;42.632;23.298;2022-10-15T18:47:32;4.93;;;3.70;;
18136;SDS011;9194;42.632;23.298;2022-10-15T18:52:33;4.00;;;3.60;;
18136;SDS011;9194;42.632;23.298;2022-10-15T18:57:34;5.20;;;3.57;;
18136;SDS011;9194;42.632;23.298;2022-10-15T19:02:36;4.70;;;3.53;;
18136;SDS011;9194;42.632;23.298;2022-10-15T19:07:37;5.37;;;3.70;;
18136;SDS011;9194;42.632;23.298;2022-10-15T19:12:38;4.90;;;3.77;;
18136;SDS011;9194;42.632;23.298;2022-10-15T19:17:39;3.00;;;2.80;;
18136;SDS011;9194;42.632;23.298;2022-10-15T19:22:41;3.80;;;3.30;;
18136;SDS011;9194;42.632;23.298;2022-10-15T19:27:42;8.30;;;3.23;;
18136;SDS011;9194;42.632;23.298;2022-10-15T19:32:45;4.50;;;3.83;;
18136;SDS011;9194;42.632;23.298;2022-10-15T19:37:46;8.40;;;5.00;;
18136;SDS011;9194;42.632;23.298;2022-10-15T19:42:48;5.60;;;4.40;;
18136;SDS011;9194;42.632;23.298;2022-10-15T19:47:50;4.73;;;4.20;;
18136;SDS011;9194;42.632;23.298;2022-10-15T19:52:52;5.30;;;3.90;;
18136;SDS011;9194;42.632;23.298;2022-10-15T19:57:53;5.80;;;3.43;;
18136;SDS011;9194;42.632;23.298;2022-10-15T20:02:55;3.57;;;3.27;;
18136;SDS011;9194;42.632;23.298;2022-10-15T20:13:02;6.67;;;3.93;;
18136;SDS011;9194;42.632;23.298;2022-10-15T20:18:03;10.63;;;3.43;;
18136;SDS011;9194;42.632;23.298;2022-10-15T20:23:05;4.20;;;3.10;;
18136;SDS011;9194;42.632;23.298;2022-10-15T20:28:06;3.37;;;3.13;;
18136;SDS011;9194;42.632;23.298;2022-10-15T20:33:09;3.23;;;2.93;;
18136;SDS011;9194;42.632;23.298;2022-10-15T20:38:12;6.20;;;3.53;;
18136;SDS011;9194;42.632;23.298;2022-10-15T20:43:13;9.10;;;3.77;;
18136;SDS011;9194;42.632;23.298;2022-10-15T20:48:19;5.43;;;3.70;;
18136;SDS011;9194;42.632;23.298;2022-10-15T20:53:22;5.50;;;3.23;;
18136;SDS011;9194;42.632;23.298;2022-10-15T20:58:25;7.37;;;3.57;;
18136;SDS011;9194;42.632;23.298;2022-10-15T21:03:27;7.43;;;3.53;;
18136;SDS011;9194;42.632;23.298;2022-10-15T21:08:30;5.10;;;4.10;;
18136;SDS011;9194;42.632;23.298;2022-10-15T21:13:32;7.63;;;3.90;;
18136;SDS011;9194;42.632;23.298;2022-10-15T21:18:35;7.13;;;4.10;;
18136;SDS011;9194;42.632;23.298;2022-10-15T21:23:37;5.70;;;3.83;;
18136;SDS011;9194;42.632;23.298;2022-10-15T21:28:39;6.23;;;3.77;;
18136;SDS011;9194;42.632;23.298;2022-10-15T21:33:41;8.93;;;4.53;;
18136;SDS011;9194;42.632;23.298;2022-10-15T21:38:43;6.10;;;3.93;;
18136;SDS011;9194;42.632;23.298;2022-10-15T21:43:44;7.27;;;4.43;;
18136;SDS011;9194;42.632;23.298;2022-10-15T21:48:45;8.47;;;4.00;;
18136;SDS011;9194;42.632;23.298;2022-10-15T21:53:49;12.37;;;4.30;;
18136;SDS011;9194;42.632;23.298;2022-10-15T21:58:51;13.43;;;4.67;;
18136;SDS011;9194;42.632;23.298;2022-10-15T22:04:01;5.97;;;4.40;;
18136;SDS011;9194;42.632;23.298;2022-10-15T22:09:08;10.10;;;4.20;;
18136;SDS011;9194;42.632;23.298;2022-10-15T22:14:11;7.03;;;4.47;;
18136;SDS011;9194;42.632;23.298;2022-10-15T22:19:13;5.03;;;4.27;;
18136;SDS011;9194;42.632;23.298;2022-10-15T22:24:17;8.10;;;4.00;;
18136;SDS011;9194;42.632;23.298;2022-10-15T22:29:21;9.90;;;4.90;;
18136;SDS011;9194;42.632;23.298;2022-10-15T22:34:24;8.37;;;4.70;;
18136;SDS011;9194;42.632;23.298;2022-10-15T22:39:25;10.80;;;4.40;;
18136;SDS011;9194;42.632;23.298;2022-10-15T22:44:26;8.73;;;4.40;;
18136;SDS011;9194;42.632;23.298;2022-10-15T22:49:28;6.43;;;3.87;;
18136;SDS011;9194;42.632;23.298;2022-10-15T22:54:29;6.77;;;4.03;;
18136;SDS011;9194;42.632;23.298;2022-10-15T22:59:35;7.20;;;4.57;;
18136;SDS011;9194;42.632;23.298;2022-10-15T23:04:36;8.00;;;4.77;;
18136;SDS011;9194;42.632;23.298;2022-10-15T23:09:37;7.20;;;4.30;;
18136;SDS011;9194;42.632;23.298;2022-10-15T23:14:38;5.93;;;4.50;;
18136;SDS011;9194;42.632;23.298;2022-10-15T23:19:40;7.67;;;4.37;;
18136;SDS011;9194;42.632;23.298;2022-10-15T23:24:41;6.50;;;4.50;;
18136;SDS011;9194;42.632;23.298;2022-10-15T23:29:42;5.40;;;4.10;;
18136;SDS011;9194;42.632;23.298;2022-10-15T23:34:43;4.97;;;4.03;;
18136;SDS011;9194;42.632;23.298;2022-10-15T23:39:45;7.47;;;4.63;;
18136;SDS011;9194;42.632;23.298;2022-10-15T23:44:46;7.97;;;4.40;;
18136;SDS011;9194;42.632;23.298;2022-10-15T23:49:47;4.40;;;3.87;;
18136;SDS011;9194;42.632;23.298;2022-10-15T23:54:49;6.30;;;4.97;;
18136;SDS011;9194;42.632;23.298;2022-10-15T23:59:53;6.43;;;4.40;;
